createdAt,value
2017-03-22T00:00:28.397Z,99.99
2017-03-22T00:01:28.376Z,99.99
2017-03-22T00:02:28.351Z,99.99
2017-03-22T00:03:28.332Z,99.99
2017-03-22T00:04:28.321Z,99.99
2017-03-22T00:05:28.290Z,99.99
2017-03-22T00:06:28.276Z,99.99
2017-03-22T00:07:28.254Z,99.99
2017-03-22T00:08:28.233Z,99.99
2017-03-22T00:09:28.208Z,99.99
2017-03-22T00:10:28.239Z,99.99
2017-03-22T00:11:28.167Z,99.99
2017-03-22T00:12:28.149Z,99.99
2017-03-22T00:13:28.130Z,99.99
2017-03-22T00:14:28.106Z,99.99
2017-03-22T00:15:28.094Z,99.99
2017-03-22T00:16:28.073Z,99.99
2017-03-22T00:17:28.045Z,99.99
2017-03-22T00:18:28.031Z,99.99
2017-03-22T00:19:28.009Z,99.99
2017-03-22T00:20:27.987Z,99.99
2017-03-22T00:21:27.972Z,99.99
2017-03-22T00:22:27.947Z,99.99
2017-03-22T00:23:27.926Z,99.99
2017-03-22T00:24:27.913Z,99.99
2017-03-22T00:25:27.883Z,99.99
2017-03-22T00:26:27.865Z,99.99
2017-03-22T00:27:27.850Z,99.99
2017-03-22T00:28:27.826Z,99.99
2017-03-22T00:29:27.806Z,99.99
2017-03-22T00:30:27.781Z,99.99
2017-03-22T00:31:27.765Z,99.99
2017-03-22T00:32:27.744Z,99.99
2017-03-22T00:33:27.730Z,99.99
2017-03-22T00:34:27.706Z,99.99
2017-03-22T00:35:27.682Z,99.99
2017-03-22T00:36:27.662Z,99.99
2017-03-22T00:37:27.328Z,99.99
2017-03-22T00:38:27.621Z,99.99
2017-03-22T00:39:27.289Z,99.99
2017-03-22T00:40:27.265Z,99.99
2017-03-22T00:41:27.564Z,99.99
2017-03-22T00:42:27.227Z,99.99
2017-03-22T00:43:27.520Z,99.99
2017-03-22T00:44:27.500Z,99.99
2017-03-22T00:45:27.484Z,99.99
2017-03-22T00:46:27.456Z,99.99
2017-03-22T00:47:27.441Z,99.99
2017-03-22T00:48:27.423Z,99.99
2017-03-22T00:49:27.400Z,99.99
2017-03-22T00:50:27.376Z,99.99
2017-03-22T00:51:27.043Z,99.99
2017-03-22T00:52:27.337Z,99.99
2017-03-22T00:53:27.318Z,99.99
2017-03-22T00:54:27.306Z,99.99
2017-03-22T00:55:27.280Z,99.99
2017-03-22T00:56:27.294Z,99.99
2017-03-22T00:57:27.236Z,99.99
2017-03-22T00:58:27.217Z,99.99
2017-03-22T00:59:27.194Z,99.99
2017-03-22T01:00:27.175Z,99.99
2017-03-22T01:01:27.154Z,99.99
2017-03-22T01:02:27.132Z,99.99
2017-03-22T01:03:27.115Z,99.99
2017-03-22T01:04:27.093Z,99.99
2017-03-22T01:05:27.073Z,99.99
2017-03-22T01:06:27.053Z,99.99
2017-03-22T01:07:27.034Z,99.99
2017-03-22T01:08:27.010Z,99.99
2017-03-22T01:09:26.999Z,99.99
2017-03-22T01:10:26.973Z,99.99
2017-03-22T01:11:26.954Z,99.99
2017-03-22T01:12:26.622Z,99.99
2017-03-22T01:13:26.912Z,99.99
2017-03-22T01:14:26.905Z,99.99
2017-03-22T01:15:26.558Z,99.99
2017-03-22T01:16:26.848Z,99.99
2017-03-22T01:17:26.830Z,99.99
2017-03-22T01:18:26.811Z,99.99
2017-03-22T01:19:26.784Z,99.99
2017-03-22T01:20:26.772Z,99.99
2017-03-22T01:21:26.747Z,99.99
2017-03-22T01:22:26.726Z,99.99
2017-03-22T01:23:26.911Z,99.99
2017-03-22T01:24:26.687Z,99.99
2017-03-22T01:25:26.663Z,99.99
2017-03-22T01:26:26.642Z,99.99
2017-03-22T01:27:26.622Z,99.99
2017-03-22T01:28:26.606Z,99.99
2017-03-22T01:29:26.583Z,99.99
2017-03-22T01:30:26.559Z,99.99
2017-03-22T01:31:26.540Z,99.99
2017-03-22T01:32:26.523Z,99.99
2017-03-22T01:33:26.194Z,99.99
2017-03-22T01:34:26.482Z,99.99
2017-03-22T01:35:26.456Z,99.99
2017-03-22T01:36:26.441Z,99.99
2017-03-22T01:37:26.417Z,99.99
2017-03-22T01:38:26.395Z,99.99
2017-03-22T01:39:26.376Z,99.99
2017-03-22T01:40:26.352Z,99.99
2017-03-22T01:41:26.330Z,99.99
2017-03-22T01:42:26.313Z,99.99
2017-03-22T01:43:26.293Z,99.99
2017-03-22T01:44:26.278Z,99.99
2017-03-22T01:45:25.933Z,99.99
2017-03-22T01:46:26.231Z,99.99
2017-03-22T01:47:25.894Z,99.99
2017-03-22T01:48:26.189Z,99.99
2017-03-22T01:49:26.170Z,99.99
2017-03-22T01:50:25.836Z,99.99
2017-03-22T01:51:26.130Z,99.99
2017-03-22T01:52:26.112Z,99.99
2017-03-22T01:53:26.084Z,99.99
2017-03-22T01:54:26.063Z,99.99
2017-03-22T01:55:26.040Z,99.99
2017-03-22T01:56:25.707Z,99.99
2017-03-22T01:57:26.004Z,99.99
2017-03-22T01:58:25.997Z,99.99
2017-03-22T01:59:25.963Z,99.99
2017-03-22T02:00:25.933Z,99.99
2017-03-22T02:01:25.603Z,99.99
2017-03-22T02:02:25.896Z,99.99
2017-03-22T02:03:25.877Z,99.99
2017-03-22T02:04:25.858Z,99.99
2017-03-22T02:05:25.553Z,99.99
2017-03-22T02:06:25.811Z,99.99
2017-03-22T02:07:25.793Z,99.99
2017-03-22T02:08:25.769Z,99.99
2017-03-22T02:09:25.751Z,99.99
2017-03-22T02:10:25.726Z,99.99
2017-03-22T02:11:25.705Z,99.99
2017-03-22T02:12:25.695Z,99.99
2017-03-22T02:13:25.670Z,99.99
2017-03-22T02:14:25.327Z,99.99
2017-03-22T02:15:25.621Z,99.99
2017-03-22T02:16:25.633Z,99.99
2017-03-22T02:17:25.580Z,99.99
2017-03-22T02:18:25.561Z,99.99
2017-03-22T02:19:25.541Z,99.99
2017-03-22T02:20:25.516Z,99.99
2017-03-22T02:21:25.497Z,99.99
2017-03-22T02:22:25.479Z,99.99
2017-03-22T02:23:25.458Z,99.99
2017-03-22T02:24:25.436Z,99.99
2017-03-22T02:25:25.407Z,99.99
2017-03-22T02:26:25.389Z,99.99
2017-03-22T02:27:25.365Z,99.99
2017-03-22T02:28:25.350Z,99.99
2017-03-22T02:29:25.016Z,99.99
2017-03-22T02:30:25.304Z,99.99
2017-03-22T02:31:25.283Z,99.99
2017-03-22T02:32:25.261Z,99.99
2017-03-22T02:33:25.244Z,99.99
2017-03-22T02:34:25.222Z,99.99
2017-03-22T02:35:25.201Z,99.99
2017-03-22T02:36:25.176Z,99.99
2017-03-22T02:37:25.156Z,99.99
2017-03-22T02:38:25.136Z,99.99
2017-03-22T02:39:25.123Z,99.99
2017-03-22T02:40:25.093Z,99.99
2017-03-22T02:41:25.071Z,99.99
2017-03-22T02:42:25.054Z,99.99
2017-03-22T02:43:25.032Z,99.99
2017-03-22T02:44:25.019Z,99.99
2017-03-22T02:45:24.986Z,99.99
2017-03-22T02:46:24.969Z,99.99
2017-03-22T02:47:24.946Z,99.99
2017-03-22T02:48:24.616Z,99.99
2017-03-22T02:49:24.907Z,99.99
2017-03-22T02:50:24.891Z,99.99
2017-03-22T02:51:24.860Z,99.99
2017-03-22T02:52:24.843Z,99.99
2017-03-22T02:53:24.819Z,99.99
2017-03-22T02:54:24.800Z,99.99
2017-03-22T02:55:24.781Z,99.99
2017-03-22T02:56:24.753Z,99.99
2017-03-22T02:57:24.735Z,99.99
2017-03-22T02:58:24.719Z,99.99
2017-03-22T02:59:24.694Z,99.99
2017-03-22T03:00:24.678Z,99.99
2017-03-22T03:01:24.654Z,99.99
2017-03-22T03:02:24.631Z,99.99
2017-03-22T03:03:24.613Z,99.99
2017-03-22T03:04:24.587Z,99.99
2017-03-22T03:05:24.568Z,99.99
2017-03-22T03:06:24.547Z,99.99
2017-03-22T03:07:24.527Z,99.99
2017-03-22T03:08:24.505Z,99.99
2017-03-22T03:09:24.515Z,99.99
2017-03-22T03:10:24.462Z,99.99
2017-03-22T03:11:24.439Z,99.99
2017-03-22T03:12:24.418Z,99.99
2017-03-22T03:13:24.403Z,99.99
2017-03-22T03:14:24.378Z,99.99
2017-03-22T03:15:24.358Z,99.99
2017-03-22T03:16:24.337Z,99.99
2017-03-22T03:17:24.313Z,99.99
2017-03-22T03:18:24.292Z,99.99
2017-03-22T03:19:24.270Z,99.99
2017-03-22T03:20:24.251Z,99.99
2017-03-22T03:21:24.227Z,99.99
2017-03-22T03:22:24.207Z,99.99
2017-03-22T03:23:24.188Z,99.99
2017-03-22T03:24:24.177Z,99.99
2017-03-22T03:25:24.145Z,99.99
2017-03-22T03:26:24.120Z,99.99
2017-03-22T03:27:24.103Z,99.99
2017-03-22T03:28:23.770Z,99.99
2017-03-22T03:29:24.059Z,99.99
2017-03-22T03:30:24.046Z,99.99
2017-03-22T03:31:24.015Z,99.99
2017-03-22T03:32:23.996Z,99.99
2017-03-22T03:33:23.979Z,99.99
2017-03-22T03:34:23.957Z,99.99
2017-03-22T03:35:23.933Z,99.99
2017-03-22T03:36:23.915Z,99.99
2017-03-22T03:37:23.892Z,99.99
2017-03-22T03:38:23.873Z,99.99
2017-03-22T03:39:23.847Z,99.99
2017-03-22T03:40:23.827Z,99.99
2017-03-22T03:41:23.805Z,99.99
2017-03-22T03:42:23.782Z,99.99
2017-03-22T03:43:23.451Z,99.99
2017-03-22T03:44:23.742Z,99.99
2017-03-22T03:45:23.408Z,99.99
2017-03-22T03:46:23.700Z,99.99
2017-03-22T03:47:23.364Z,99.99
2017-03-22T03:48:23.666Z,99.99
2017-03-22T03:49:23.635Z,99.99
2017-03-22T03:50:23.298Z,99.99
2017-03-22T03:51:23.594Z,99.99
2017-03-22T03:52:23.570Z,99.99
2017-03-22T03:53:23.549Z,99.99
2017-03-22T03:54:23.218Z,99.99
2017-03-22T03:55:23.507Z,99.99
2017-03-22T03:56:23.489Z,99.99
2017-03-22T03:57:23.464Z,99.99
2017-03-22T03:58:23.452Z,99.99
2017-03-22T03:59:23.421Z,99.99
2017-03-22T04:00:23.398Z,99.99
2017-03-22T04:01:23.072Z,99.99
2017-03-22T04:02:23.358Z,99.99
2017-03-22T04:03:23.339Z,99.99
2017-03-22T04:04:23.318Z,99.99
2017-03-22T04:05:23.299Z,99.99
2017-03-22T04:06:23.271Z,99.99
2017-03-22T04:07:23.249Z,99.99
2017-03-22T04:08:23.279Z,99.99
2017-03-22T04:09:23.216Z,99.99
2017-03-22T04:10:23.190Z,99.99
2017-03-22T04:11:23.166Z,99.99
2017-03-22T04:12:22.829Z,99.99
2017-03-22T04:13:23.126Z,99.99
2017-03-22T04:14:23.105Z,99.99
2017-03-22T04:15:23.090Z,99.99
2017-03-22T04:16:23.057Z,99.99
2017-03-22T04:17:23.034Z,99.99
2017-03-22T04:18:23.019Z,99.99
2017-03-22T04:19:22.998Z,99.99
2017-03-22T04:20:22.971Z,99.99
2017-03-22T04:21:22.956Z,99.99
2017-03-22T04:22:22.988Z,99.99
2017-03-22T04:23:22.909Z,99.99
2017-03-22T04:24:22.898Z,99.99
2017-03-22T04:25:22.870Z,99.99
2017-03-22T04:26:22.843Z,99.99
2017-03-22T04:27:22.821Z,99.99
2017-03-22T04:28:22.806Z,99.99
2017-03-22T04:29:22.782Z,99.99
2017-03-22T04:30:22.757Z,99.99
2017-03-22T04:31:22.738Z,99.99
2017-03-22T04:32:22.713Z,99.99
2017-03-22T04:33:22.694Z,99.99
2017-03-22T04:34:22.675Z,99.99
2017-03-22T04:35:22.651Z,99.99
2017-03-22T04:36:22.630Z,99.99
2017-03-22T04:37:22.611Z,99.99
2017-03-22T04:38:22.587Z,99.99
2017-03-22T04:39:22.571Z,99.99
2017-03-22T04:40:22.544Z,99.99
2017-03-22T04:41:22.206Z,99.99
2017-03-22T04:42:22.504Z,99.99
2017-03-22T04:43:22.531Z,99.99
2017-03-22T04:44:22.458Z,99.99
2017-03-22T04:45:22.438Z,99.99
2017-03-22T04:46:22.410Z,99.99
2017-03-22T04:47:22.390Z,99.99
2017-03-22T04:48:22.371Z,99.99
2017-03-22T04:49:22.349Z,99.99
2017-03-22T04:50:22.017Z,99.99
2017-03-22T04:51:22.309Z,99.99
2017-03-22T04:52:22.289Z,99.99
2017-03-22T04:53:22.265Z,99.99
2017-03-22T04:54:22.271Z,99.99
2017-03-22T04:55:22.222Z,99.99
2017-03-22T04:56:22.207Z,99.99
2017-03-22T04:57:22.180Z,99.99
2017-03-22T04:58:22.159Z,99.99
2017-03-22T04:59:22.133Z,99.99
2017-03-22T05:00:22.116Z,99.99
2017-03-22T05:01:22.095Z,99.99
2017-03-22T05:02:22.072Z,99.99
2017-03-22T05:03:22.054Z,99.99
2017-03-22T05:04:22.028Z,99.99
2017-03-22T05:05:22.006Z,99.99
2017-03-22T05:06:21.985Z,99.99
2017-03-22T05:07:21.959Z,99.99
2017-03-22T05:08:21.944Z,99.99
2017-03-22T05:09:21.608Z,99.99
2017-03-22T05:10:21.583Z,99.99
2017-03-22T05:11:21.875Z,99.99
2017-03-22T05:12:21.854Z,99.99
2017-03-22T05:13:21.834Z,99.99
2017-03-22T05:14:21.813Z,99.99
2017-03-22T05:15:21.791Z,99.99
2017-03-22T05:16:21.771Z,99.99
2017-03-22T05:17:21.745Z,99.99
2017-03-22T05:18:21.412Z,99.99
2017-03-22T05:19:21.709Z,99.99
2017-03-22T05:20:21.680Z,99.99
2017-03-22T05:21:21.658Z,99.99
2017-03-22T05:22:21.672Z,99.99
2017-03-22T05:23:21.617Z,99.99
2017-03-22T05:24:21.799Z,99.99
2017-03-22T05:25:21.572Z,99.99
2017-03-22T05:26:21.238Z,99.99
2017-03-22T05:27:21.529Z,99.99
2017-03-22T05:28:21.510Z,99.99
2017-03-22T05:29:21.486Z,99.99
2017-03-22T05:30:21.463Z,99.99
2017-03-22T05:31:21.443Z,99.99
2017-03-22T05:32:21.420Z,99.99
2017-03-22T05:33:21.403Z,99.99
2017-03-22T05:34:21.375Z,99.99
2017-03-22T05:35:21.357Z,99.99
2017-03-22T05:36:21.339Z,99.99
2017-03-22T05:37:21.364Z,99.99
2017-03-22T05:38:21.288Z,99.99
2017-03-22T05:39:21.267Z,99.99
2017-03-22T05:40:21.244Z,99.99
2017-03-22T05:41:21.224Z,99.99
2017-03-22T05:42:21.204Z,99.99
2017-03-22T05:43:21.229Z,99.99
2017-03-22T05:44:21.158Z,99.99
2017-03-22T05:45:21.134Z,99.99
2017-03-22T05:46:21.119Z,99.99
2017-03-22T05:47:21.092Z,99.99
2017-03-22T05:48:21.075Z,99.99
2017-03-22T05:49:21.061Z,99.99
2017-03-22T05:50:21.025Z,99.99
2017-03-22T05:51:21.007Z,99.99
2017-03-22T05:52:20.986Z,99.99
2017-03-22T05:53:20.965Z,99.99
2017-03-22T05:54:20.942Z,99.99
2017-03-22T05:55:20.919Z,99.99
2017-03-22T05:56:20.898Z,99.99
2017-03-22T05:57:20.876Z,99.99
2017-03-22T05:58:20.858Z,99.99
2017-03-22T05:59:20.831Z,99.99
2017-03-22T06:00:20.807Z,99.99
2017-03-22T06:01:20.788Z,99.99
2017-03-22T06:02:20.451Z,99.99
2017-03-22T06:03:20.746Z,99.99
2017-03-22T06:04:20.723Z,99.99
2017-03-22T06:05:20.697Z,99.99
2017-03-22T06:06:20.692Z,99.99
2017-03-22T06:07:20.663Z,99.99
2017-03-22T06:08:20.646Z,99.99
2017-03-22T06:09:20.312Z,99.99
2017-03-22T06:10:20.603Z,99.99
2017-03-22T06:11:20.576Z,99.99
2017-03-22T06:12:20.559Z,99.99
2017-03-22T06:13:20.530Z,99.99
2017-03-22T06:14:20.191Z,99.99
2017-03-22T06:15:20.480Z,99.99
2017-03-22T06:16:20.462Z,99.99
2017-03-22T06:17:20.439Z,99.99
2017-03-22T06:18:20.416Z,99.99
2017-03-22T06:19:20.396Z,99.99
2017-03-22T06:20:20.371Z,99.99
2017-03-22T06:21:20.357Z,99.99
2017-03-22T06:22:20.022Z,99.99
2017-03-22T06:23:20.315Z,99.99
2017-03-22T06:24:20.293Z,99.99
2017-03-22T06:25:19.955Z,99.99
2017-03-22T06:26:19.929Z,99.99
2017-03-22T06:27:19.915Z,99.99
2017-03-22T06:28:20.201Z,99.99
2017-03-22T06:29:20.191Z,99.99
2017-03-22T06:30:19.849Z,99.99
2017-03-22T06:31:20.137Z,99.99
2017-03-22T06:32:20.116Z,99.99
2017-03-22T06:33:20.095Z,99.99
2017-03-22T06:34:20.073Z,99.99
2017-03-22T06:35:20.051Z,99.99
2017-03-22T06:36:19.716Z,99.99
2017-03-22T06:37:20.012Z,99.99
2017-03-22T06:38:19.991Z,99.99
2017-03-22T06:39:19.967Z,99.99
2017-03-22T06:40:19.942Z,99.99
2017-03-22T06:41:19.919Z,99.99
2017-03-22T06:42:19.951Z,99.99
2017-03-22T06:43:19.883Z,99.99
2017-03-22T06:44:19.860Z,99.99
2017-03-22T06:45:19.843Z,99.99
2017-03-22T06:46:19.817Z,99.99
2017-03-22T06:47:19.796Z,99.99
2017-03-22T06:48:19.779Z,99.99
2017-03-22T06:49:19.805Z,99.99
2017-03-22T06:50:19.727Z,99.99
2017-03-22T06:51:19.710Z,99.99
2017-03-22T06:52:19.685Z,99.99
2017-03-22T06:53:19.670Z,99.99
2017-03-22T06:54:19.647Z,99.99
2017-03-22T06:55:19.624Z,99.99
2017-03-22T06:56:19.603Z,99.99
2017-03-22T06:57:19.586Z,99.99
2017-03-22T06:58:19.560Z,99.99
2017-03-22T06:59:19.545Z,99.99
2017-03-22T07:00:19.515Z,99.99
2017-03-22T07:01:19.494Z,99.99
2017-03-22T07:02:19.478Z,99.99
2017-03-22T07:03:19.457Z,99.99
2017-03-22T07:04:19.437Z,99.99
2017-03-22T07:05:19.412Z,99.99
2017-03-22T07:06:19.397Z,99.99
2017-03-22T07:07:19.059Z,99.99
2017-03-22T07:08:19.353Z,99.99
2017-03-22T07:09:19.332Z,99.99
2017-03-22T07:10:18.993Z,99.99
2017-03-22T07:11:19.289Z,99.99
2017-03-22T07:12:19.267Z,99.99
2017-03-22T07:13:19.249Z,99.99
2017-03-22T07:14:19.230Z,99.99
2017-03-22T07:15:19.203Z,99.99
2017-03-22T07:16:19.183Z,99.99
2017-03-22T07:17:19.163Z,99.99
2017-03-22T07:18:19.143Z,99.99
2017-03-22T07:19:19.123Z,99.99
2017-03-22T07:20:18.789Z,99.99
2017-03-22T07:21:19.082Z,99.99
2017-03-22T07:22:19.059Z,99.99
2017-03-22T07:23:19.053Z,99.99
2017-03-22T07:24:19.229Z,99.99
2017-03-22T07:25:18.998Z,99.99
2017-03-22T07:26:18.981Z,99.99
2017-03-22T07:27:18.959Z,99.99
2017-03-22T07:28:18.939Z,99.99
2017-03-22T07:29:18.919Z,99.99
2017-03-22T07:30:18.899Z,99.99
2017-03-22T07:31:18.878Z,99.99
2017-03-22T07:32:18.541Z,99.99
2017-03-22T07:33:18.841Z,99.99
2017-03-22T07:34:18.813Z,99.99
2017-03-22T07:35:18.800Z,99.99
2017-03-22T07:36:18.777Z,99.99
2017-03-22T07:37:18.759Z,99.99
2017-03-22T07:38:18.735Z,99.99
2017-03-22T07:39:18.718Z,99.99
2017-03-22T07:40:18.700Z,99.99
2017-03-22T07:41:18.677Z,99.99
2017-03-22T07:42:18.363Z,99.99
2017-03-22T07:43:18.338Z,99.99
2017-03-22T07:44:18.616Z,99.99
2017-03-22T07:45:18.596Z,99.99
2017-03-22T07:46:18.577Z,99.99
2017-03-22T07:47:18.556Z,99.99
2017-03-22T07:48:18.536Z,99.99
2017-03-22T07:49:18.524Z,99.99
2017-03-22T07:50:18.499Z,99.99
2017-03-22T07:51:18.491Z,99.99
2017-03-22T07:52:18.463Z,99.99
2017-03-22T07:53:18.438Z,99.99
2017-03-22T07:54:18.418Z,99.99
2017-03-22T07:55:18.088Z,99.99
2017-03-22T07:56:18.382Z,99.99
2017-03-22T07:57:18.050Z,99.99
2017-03-22T07:58:18.033Z,99.99
2017-03-22T07:59:18.324Z,99.99
2017-03-22T08:00:17.988Z,99.99
2017-03-22T08:01:18.283Z,99.99
2017-03-22T08:02:18.267Z,99.99
2017-03-22T08:03:18.249Z,99.99
2017-03-22T08:04:18.223Z,99.99
2017-03-22T08:05:18.203Z,99.99
2017-03-22T08:06:18.189Z,99.99
2017-03-22T08:07:18.173Z,99.99
2017-03-22T08:08:18.154Z,99.99
2017-03-22T08:09:18.133Z,99.99
2017-03-22T08:10:18.143Z,99.99
2017-03-22T08:11:18.093Z,99.99
2017-03-22T08:12:18.071Z,99.99
2017-03-22T08:13:18.055Z,99.99
2017-03-22T08:14:18.034Z,99.99
2017-03-22T08:15:18.015Z,99.99
2017-03-22T08:16:17.993Z,99.99
2017-03-22T08:17:17.983Z,99.99
2017-03-22T08:18:17.961Z,99.99
2017-03-22T08:19:17.942Z,99.99
2017-03-22T08:20:17.921Z,99.99
2017-03-22T08:21:17.905Z,99.99
2017-03-22T08:22:17.882Z,99.99
2017-03-22T08:23:17.866Z,99.99
2017-03-22T08:24:17.851Z,99.99
2017-03-22T08:25:17.830Z,94.56
2017-03-22T08:26:17.821Z,90.22
2017-03-22T08:27:17.802Z,86.18
2017-03-22T08:28:17.782Z,84.12
2017-03-22T08:29:17.774Z,79.3
2017-03-22T08:30:17.761Z,80.2
2017-03-22T08:31:17.435Z,75.66
2017-03-22T08:32:17.724Z,76.52
2017-03-22T08:33:17.713Z,77.38
2017-03-22T08:34:17.388Z,71.78
2017-03-22T08:35:17.687Z,70.16
2017-03-22T08:36:17.675Z,68.29
2017-03-22T08:37:17.666Z,65.36
2017-03-22T08:38:17.656Z,65.3
2017-03-22T08:39:17.644Z,64.47
2017-03-22T08:40:17.635Z,63.7
2017-03-22T08:41:17.622Z,63.7
2017-03-22T08:42:17.300Z,60.93
2017-03-22T08:43:17.684Z,62.33
2017-03-22T08:44:17.596Z,63.99
2017-03-22T08:45:17.586Z,66.47
2017-03-22T08:46:17.577Z,66.56
2017-03-22T08:47:17.570Z,65.52
2017-03-22T08:48:17.562Z,65.61
2017-03-22T08:49:17.552Z,65.3
2017-03-22T08:50:17.546Z,64.34
2017-03-22T08:51:17.540Z,64.43
2017-03-22T08:52:17.528Z,65.36
2017-03-22T08:53:17.521Z,66.72
2017-03-22T08:54:17.564Z,65.2
2017-03-22T08:55:17.501Z,65.3
2017-03-22T08:56:17.501Z,67.07
2017-03-22T08:57:17.485Z,69.74
2017-03-22T08:58:17.482Z,70.36
2017-03-22T08:59:17.491Z,69.49
2017-03-22T09:00:17.463Z,70.36
2017-03-22T09:01:17.463Z,70.1
2017-03-22T09:02:17.447Z,68.96
2017-03-22T09:03:17.442Z,69.72
2017-03-22T09:04:17.430Z,68.96
2017-03-22T09:05:17.424Z,67.91
2017-03-22T09:06:17.415Z,67.33
2017-03-22T09:07:17.136Z,68.63
2017-03-22T09:08:17.399Z,69.21
2017-03-22T09:09:17.394Z,68.63
2017-03-22T09:10:17.385Z,67.49
2017-03-22T09:11:17.377Z,68.16
2017-03-22T09:12:17.375Z,66.72
2017-03-22T09:13:17.363Z,68.22
2017-03-22T09:14:17.352Z,69.84
2017-03-22T09:15:17.357Z,70.51
2017-03-22T09:16:17.387Z,69.27
2017-03-22T09:17:17.331Z,70.13
2017-03-22T09:18:17.353Z,72.71
2017-03-22T09:19:17.000Z,73.03
2017-03-22T09:20:17.310Z,69.4
2017-03-22T09:21:16.988Z,66.25
2017-03-22T09:22:17.298Z,68.12
2017-03-22T09:23:17.287Z,69.31
2017-03-22T09:24:17.476Z,69.31
2017-03-22T09:25:17.264Z,67.24
2017-03-22T09:26:17.290Z,65.61
2017-03-22T09:27:17.258Z,66.19
2017-03-22T09:28:17.246Z,65.33
2017-03-22T09:29:16.921Z,65.52
2017-03-22T09:30:17.231Z,66.28
2017-03-22T09:31:17.361Z,64.69
2017-03-22T09:32:17.214Z,65.48
2017-03-22T09:33:17.201Z,63.19
2017-03-22T09:34:17.193Z,64.59
2017-03-22T09:35:17.187Z,65.14
2017-03-22T09:36:17.180Z,66.47
2017-03-22T09:37:17.170Z,66
2017-03-22T09:38:17.169Z,68.67
2017-03-22T09:39:17.154Z,69.21
2017-03-22T09:40:17.149Z,69.74
2017-03-22T09:41:17.136Z,69.37
2017-03-22T09:42:17.141Z,68.73
2017-03-22T09:43:17.119Z,67.33
2017-03-22T09:44:17.111Z,66.5
2017-03-22T09:45:16.789Z,66.76
2017-03-22T09:46:17.093Z,66.95
2017-03-22T09:47:17.085Z,69.21
2017-03-22T09:48:16.760Z,67.3
2017-03-22T09:49:17.065Z,67.62
2017-03-22T09:50:17.057Z,68.29
2017-03-22T09:51:17.048Z,67.75
2017-03-22T09:52:17.039Z,69.47
2017-03-22T09:53:17.066Z,67.27
2017-03-22T09:54:16.708Z,67.02
2017-03-22T09:55:16.702Z,66.13
2017-03-22T09:56:16.689Z,65.26
2017-03-22T09:57:17.003Z,65.74
2017-03-22T09:58:16.990Z,64.98
2017-03-22T09:59:16.977Z,66.76
2017-03-22T10:00:16.979Z,66.22
2017-03-22T10:01:16.967Z,67.24
2017-03-22T10:02:16.645Z,68.19
2017-03-22T10:03:16.951Z,68.67
2017-03-22T10:04:16.626Z,69.43
2017-03-22T10:05:16.932Z,69.43
2017-03-22T10:06:16.611Z,67.24
2017-03-22T10:07:16.920Z,67.62
2017-03-22T10:08:16.591Z,69.49
2017-03-22T10:09:16.894Z,70.83
2017-03-22T10:10:16.892Z,69.97
2017-03-22T10:11:16.563Z,69.59
2017-03-22T10:12:16.872Z,69.31
2017-03-22T10:13:16.867Z,70.36
2017-03-22T10:14:16.853Z,71.12
2017-03-22T10:15:16.534Z,70.26
2017-03-22T10:16:16.524Z,71.88
2017-03-22T10:17:16.831Z,71.82
2017-03-22T10:18:16.820Z,72.78
2017-03-22T10:19:16.500Z,71.13
2017-03-22T10:20:16.491Z,69.89
2017-03-22T10:21:16.800Z,66.73
2017-03-22T10:22:16.486Z,67.02
2017-03-22T10:23:16.467Z,66.54
2017-03-22T10:24:16.508Z,67.84
2017-03-22T10:25:16.768Z,69.6
2017-03-22T10:26:16.446Z,69.6
2017-03-22T10:27:16.747Z,65.42
2017-03-22T10:28:16.742Z,64.75
2017-03-22T10:29:16.737Z,65.23
2017-03-22T10:30:16.731Z,66.16
2017-03-22T10:31:16.722Z,67.53
2017-03-22T10:32:16.404Z,66.96
2017-03-22T10:33:16.394Z,64.4
2017-03-22T10:34:16.703Z,64.85
2017-03-22T10:35:16.381Z,65.04
2017-03-22T10:36:16.373Z,65.14
2017-03-22T10:37:16.371Z,64.28
2017-03-22T10:38:16.684Z,65.39
2017-03-22T10:39:16.669Z,65.11
2017-03-22T10:40:16.669Z,64.62
2017-03-22T10:41:16.347Z,64.43
2017-03-22T10:42:16.653Z,64.53
2017-03-22T10:43:16.650Z,64.82
2017-03-22T10:44:16.641Z,64.34
2017-03-22T10:45:16.644Z,65.11
2017-03-22T10:46:16.318Z,64.72
2017-03-22T10:47:16.626Z,65.2
2017-03-22T10:48:16.617Z,65.39
2017-03-22T10:49:16.306Z,65.42
2017-03-22T10:50:16.297Z,64.85
2017-03-22T10:51:16.295Z,63.51
2017-03-22T10:52:16.608Z,64.5
2017-03-22T10:53:16.333Z,63.8
2017-03-22T10:54:16.593Z,64.09
2017-03-22T10:55:16.596Z,63.73
2017-03-22T10:56:16.586Z,65.26
2017-03-22T10:57:16.578Z,63.54
2017-03-22T10:58:16.578Z,64.43
2017-03-22T10:59:16.262Z,63.06
2017-03-22T11:00:16.568Z,63.45
2017-03-22T11:01:16.257Z,63.73
2017-03-22T11:02:16.246Z,64.31
2017-03-22T11:03:16.241Z,65.23
2017-03-22T11:04:16.551Z,66.73
2017-03-22T11:05:16.238Z,67.08
2017-03-22T11:06:16.233Z,68.04
2017-03-22T11:07:16.542Z,69.82
2017-03-22T11:08:16.223Z,68.9
2017-03-22T11:09:16.219Z,68.96
2017-03-22T11:10:16.529Z,70.48
2017-03-22T11:11:16.208Z,70.77
2017-03-22T11:12:16.202Z,72.55
2017-03-22T11:13:16.196Z,71.69
2017-03-22T11:14:16.192Z,72.55
2017-03-22T11:15:16.185Z,71.82
2017-03-22T11:16:16.490Z,70.83
2017-03-22T11:17:16.223Z,71.02
2017-03-22T11:18:16.166Z,73.12
2017-03-22T11:19:16.158Z,74.65
2017-03-22T11:20:16.467Z,74.02
2017-03-22T11:21:16.147Z,71.82
2017-03-22T11:22:16.464Z,72.87
2017-03-22T11:23:16.458Z,71.09
2017-03-22T11:24:16.693Z,70.48
2017-03-22T11:25:16.430Z,71.06
2017-03-22T11:26:16.111Z,73.29
2017-03-22T11:27:16.417Z,72.72
2017-03-22T11:28:16.416Z,70.94
2017-03-22T11:29:16.402Z,73.9
2017-03-22T11:30:16.401Z,73.33
2017-03-22T11:31:16.389Z,73.43
2017-03-22T11:32:16.387Z,73.23
2017-03-22T11:33:16.373Z,71.32
2017-03-22T11:34:16.374Z,70.07
2017-03-22T11:35:16.751Z,71.28
2017-03-22T11:36:16.371Z,71.76
2017-03-22T11:37:16.349Z,71.06
2017-03-22T11:38:16.347Z,71.44
2017-03-22T11:39:16.410Z,75.35
2017-03-22T11:40:16.363Z,72.49
2017-03-22T11:41:16.329Z,71.34
2017-03-22T11:42:16.349Z,71.21
2017-03-22T11:43:16.341Z,72.11
2017-03-22T11:44:16.314Z,70.29
2017-03-22T11:45:16.316Z,70.07
2017-03-22T11:46:16.307Z,71.31
2017-03-22T11:47:15.960Z,71.02
2017-03-22T11:48:16.260Z,71.88
2017-03-22T11:49:16.249Z,71.41
2017-03-22T11:50:16.244Z,71.02
2017-03-22T11:51:16.236Z,72.45
2017-03-22T11:52:16.227Z,71.44
2017-03-22T11:53:16.220Z,70.58
2017-03-22T11:54:16.212Z,70.2
2017-03-22T11:55:16.199Z,71.44
2017-03-22T11:56:16.183Z,71.67
2017-03-22T11:57:16.182Z,70.14
2017-03-22T11:58:15.865Z,67.94
2017-03-22T11:59:15.854Z,68.13
2017-03-22T12:00:16.161Z,70.23
2017-03-22T12:01:16.148Z,70.9
2017-03-22T12:02:16.135Z,72.94
2017-03-22T12:03:16.133Z,71.13
2017-03-22T12:04:16.122Z,68.87
2017-03-22T12:05:16.111Z,66.57
2017-03-22T12:06:16.365Z,71.36
2017-03-22T12:07:15.781Z,72.02
2017-03-22T12:08:16.096Z,69.92
2017-03-22T12:09:15.770Z,69
2017-03-22T12:10:15.764Z,66.7
2017-03-22T12:11:15.958Z,65.68
2017-03-22T12:12:16.057Z,65.3
2017-03-22T12:13:16.060Z,65.11
2017-03-22T12:14:16.056Z,62.33
2017-03-22T12:15:15.733Z,62.2
2017-03-22T12:16:15.736Z,63.06
2017-03-22T12:17:16.034Z,60.51
2017-03-22T12:18:15.917Z,60.86
2017-03-22T12:19:15.715Z,62.3
2017-03-22T12:20:16.016Z,63.26
2017-03-22T12:21:15.691Z,60.83
2017-03-22T12:22:16.003Z,60.06
2017-03-22T12:23:15.996Z,58.27
2017-03-22T12:24:15.678Z,57.38
2017-03-22T12:25:15.991Z,56.35
2017-03-22T12:26:15.984Z,58.84
2017-03-22T12:27:15.988Z,56.83
2017-03-22T12:28:15.980Z,56.71
2017-03-22T12:29:15.978Z,56.87
2017-03-22T12:30:15.984Z,57.26
2017-03-22T12:31:15.971Z,56.1
2017-03-22T12:32:15.966Z,56.17
2017-03-22T12:33:15.965Z,55.76
2017-03-22T12:34:15.974Z,57.39
2017-03-22T12:35:15.954Z,55.96
2017-03-22T12:36:15.953Z,58.54
2017-03-22T12:37:15.958Z,59.88
2017-03-22T12:38:15.634Z,60.16
2017-03-22T12:39:15.939Z,61.6
2017-03-22T12:40:15.624Z,60.67
2017-03-22T12:41:15.940Z,60.26
2017-03-22T12:42:15.935Z,60.55
2017-03-22T12:43:15.932Z,60.55
2017-03-22T12:44:15.920Z,60.52
2017-03-22T12:45:15.916Z,61.47
2017-03-22T12:46:15.912Z,60.42
2017-03-22T12:47:15.908Z,60.71
2017-03-22T12:48:15.906Z,61.19
2017-03-22T12:49:15.906Z,59.81
2017-03-22T12:50:15.904Z,59.91
2017-03-22T12:51:15.886Z,59.81
2017-03-22T12:52:15.882Z,62.59
2017-03-22T12:53:15.877Z,63.45